sensor_id;sensor_type;location;lat;lon;timestamp;pressure;altitude;pressure_sealevel;temperature;humidity
54122;BME280;40029;58.708;50.190;2023-12-20T00:00:46;97334.94;;;-2.37;89.35
54122;BME280;40029;58.708;50.190;2023-12-20T00:03:17;97337.31;;;-2.29;89.66
54122;BME280;40029;58.708;50.190;2023-12-20T00:06:07;97338.31;;;-2.33;89.26
54122;BME280;40029;58.708;50.190;2023-12-20T00:08:38;97336.50;;;-2.31;88.62
54122;BME280;40029;58.708;50.190;2023-12-20T00:11:10;97329.34;;;-2.21;89.14
54122;BME280;40029;58.708;50.190;2023-12-20T00:13:59;97332.81;;;-2.22;88.74
54122;BME280;40029;58.708;50.190;2023-12-20T00:16:49;97332.47;;;-2.11;88.50
54122;BME280;40029;58.708;50.190;2023-12-20T00:19:20;97327.44;;;-2.16;88.48
54122;BME280;40029;58.708;50.190;2023-12-20T00:21:51;97327.38;;;-2.15;88.20
54122;BME280;40029;58.708;50.190;2023-12-20T00:24:22;97336.81;;;-2.12;88.43
54122;BME280;40029;58.708;50.190;2023-12-20T00:26:53;97334.03;;;-2.06;88.64
54122;BME280;40029;58.708;50.190;2023-12-20T00:29:25;97335.78;;;-2.06;88.61
54122;BME280;40029;58.708;50.190;2023-12-20T00:32:15;97326.34;;;-2.09;88.19
54122;BME280;40029;58.708;50.190;2023-12-20T00:34:46;97327.25;;;-2.10;89.27
54122;BME280;40029;58.708;50.190;2023-12-20T00:37:17;97327.16;;;-2.07;89.33
54122;BME280;40029;58.708;50.190;2023-12-20T00:39:48;97327.31;;;-2.11;89.27
54122;BME280;40029;58.708;50.190;2023-12-20T00:42:19;97324.63;;;-2.08;89.96
54122;BME280;40029;58.708;50.190;2023-12-20T00:44:51;97324.56;;;-2.07;89.54
54122;BME280;40029;58.708;50.190;2023-12-20T00:47:40;97316.16;;;-2.14;90.00
54122;BME280;40029;58.708;50.190;2023-12-20T00:50:30;97308.22;;;-2.09;89.99
54122;BME280;40029;58.708;50.190;2023-12-20T00:53:01;97305.63;;;-2.09;89.83
54122;BME280;40029;58.708;50.190;2023-12-20T00:55:32;97303.06;;;-2.09;89.85
54122;BME280;40029;58.708;50.190;2023-12-20T00:58:03;97302.13;;;-2.06;89.93
54122;BME280;40029;58.708;50.190;2023-12-20T01:00:35;97303.84;;;-2.07;90.35
54122;BME280;40029;58.708;50.190;2023-12-20T01:03:06;97300.28;;;-2.03;90.31
54122;BME280;40029;58.708;50.190;2023-12-20T01:05:56;97294.13;;;-1.99;90.51
54122;BME280;40029;58.708;50.190;2023-12-20T01:08:27;97292.31;;;-1.97;89.83
54122;BME280;40029;58.708;50.190;2023-12-20T01:10:58;97295.63;;;-1.91;89.95
54122;BME280;40029;58.708;50.190;2023-12-20T01:13:47;97285.63;;;-2.04;90.37
54122;BME280;40029;58.708;50.190;2023-12-20T01:16:18;97270.88;;;-2.02;90.33
54122;BME280;40029;58.708;50.190;2023-12-20T01:18:50;97284.50;;;-1.95;90.90
54122;BME280;40029;58.708;50.190;2023-12-20T01:21:21;97279.28;;;-1.93;90.29
54122;BME280;40029;58.708;50.190;2023-12-20T01:23:52;97290.28;;;-1.87;90.42
54122;BME280;40029;58.708;50.190;2023-12-20T01:26:23;97280.63;;;-1.82;90.22
54122;BME280;40029;58.708;50.190;2023-12-20T01:28:54;97287.81;;;-1.90;90.35
54122;BME280;40029;58.708;50.190;2023-12-20T01:31:26;97288.34;;;-1.80;90.62
54122;BME280;40029;58.708;50.190;2023-12-20T01:33:58;97280.75;;;-1.86;90.67
54122;BME280;40029;58.708;50.190;2023-12-20T01:36:47;97283.53;;;-1.92;91.05
54122;BME280;40029;58.708;50.190;2023-12-20T01:39:37;97272.25;;;-1.90;91.67
54122;BME280;40029;58.708;50.190;2023-12-20T01:42:08;97268.63;;;-1.84;91.50
54122;BME280;40029;58.708;50.190;2023-12-20T01:44:40;97269.50;;;-1.85;91.24
54122;BME280;40029;58.708;50.190;2023-12-20T01:47:12;97274.47;;;-1.79;91.33
54122;BME280;40029;58.708;50.190;2023-12-20T01:49:43;97272.69;;;-1.77;91.27
54122;BME280;40029;58.708;50.190;2023-12-20T01:52:15;97267.41;;;-1.74;91.24
54122;BME280;40029;58.708;50.190;2023-12-20T01:54:47;97266.56;;;-1.75;91.34
54122;BME280;40029;58.708;50.190;2023-12-20T01:57:18;97273.38;;;-1.72;91.52
54122;BME280;40029;58.708;50.190;2023-12-20T01:59:50;97277.56;;;-1.68;91.70
54122;BME280;40029;58.708;50.190;2023-12-20T02:02:21;97274.06;;;-1.67;91.75
54122;BME280;40029;58.708;50.190;2023-12-20T02:04:53;97271.34;;;-1.62;91.02
54122;BME280;40029;58.708;50.190;2023-12-20T02:07:24;97277.25;;;-1.59;91.21
54122;BME280;40029;58.708;50.190;2023-12-20T02:09:55;97271.19;;;-1.58;91.44
54122;BME280;40029;58.708;50.190;2023-12-20T02:12:45;97272.44;;;-1.44;91.16
54122;BME280;40029;58.708;50.190;2023-12-20T02:15:16;97271.47;;;-1.40;90.89
54122;BME280;40029;58.708;50.190;2023-12-20T02:17:49;97273.94;;;-1.37;90.87
54122;BME280;40029;58.708;50.190;2023-12-20T02:20:40;97278.28;;;-1.38;90.43
54122;BME280;40029;58.708;50.190;2023-12-20T02:23:11;97277.50;;;-1.40;90.28
54122;BME280;40029;58.708;50.190;2023-12-20T02:26:00;97274.53;;;-1.29;90.77
54122;BME280;40029;58.708;50.190;2023-12-20T02:28:32;97276.03;;;-1.22;90.62
54122;BME280;40029;58.708;50.190;2023-12-20T02:31:03;97274.13;;;-1.18;90.51
54122;BME280;40029;58.708;50.190;2023-12-20T02:33:34;97270.72;;;-1.19;90.44
54122;BME280;40029;58.708;50.190;2023-12-20T02:36:06;97272.41;;;-1.18;90.53
54122;BME280;40029;58.708;50.190;2023-12-20T02:38:37;97273.75;;;-1.07;90.40
54122;BME280;40029;58.708;50.190;2023-12-20T02:41:08;97274.44;;;-1.02;90.92
54122;BME280;40029;58.708;50.190;2023-12-20T02:43:40;97271.72;;;-0.98;90.83
54122;BME280;40029;58.708;50.190;2023-12-20T02:46:11;97275.94;;;-0.95;90.50
54122;BME280;40029;58.708;50.190;2023-12-20T02:48:43;97276.63;;;-0.90;90.91
54122;BME280;40029;58.708;50.190;2023-12-20T02:51:14;97270.41;;;-0.86;90.37
54122;BME280;40029;58.708;50.190;2023-12-20T02:53:45;97278.09;;;-0.83;90.46
54122;BME280;40029;58.708;50.190;2023-12-20T02:56:17;97273.88;;;-0.87;90.21
54122;BME280;40029;58.708;50.190;2023-12-20T02:58:48;97271.94;;;-0.80;90.64
54122;BME280;40029;58.708;50.190;2023-12-20T03:01:19;97273.63;;;-0.79;90.46
54122;BME280;40029;58.708;50.190;2023-12-20T03:03:50;97284.66;;;-0.74;90.31
54122;BME280;40029;58.708;50.190;2023-12-20T03:06:22;97276.84;;;-0.72;90.55
54122;BME280;40029;58.708;50.190;2023-12-20T03:08:53;97283.53;;;-0.67;90.33
54122;BME280;40029;58.708;50.190;2023-12-20T03:11:27;97287.06;;;-0.68;90.59
54122;BME280;40029;58.708;50.190;2023-12-20T03:13:58;97290.44;;;-0.66;90.52
54122;BME280;40029;58.708;50.190;2023-12-20T03:16:29;97292.81;;;-0.60;90.54
54122;BME280;40029;58.708;50.190;2023-12-20T03:19:02;97295.34;;;-0.58;90.56
54122;BME280;40029;58.708;50.190;2023-12-20T03:21:33;97294.31;;;-0.54;90.62
54122;BME280;40029;58.708;50.190;2023-12-20T03:24:04;97291.38;;;-0.45;89.98
54122;BME280;40029;58.708;50.190;2023-12-20T03:26:35;97293.03;;;-0.42;90.40
54122;BME280;40029;58.708;50.190;2023-12-20T03:29:07;97292.06;;;-0.40;90.38
54122;BME280;40029;58.708;50.190;2023-12-20T03:31:38;97303.19;;;-0.36;89.88
54122;BME280;40029;58.708;50.190;2023-12-20T03:34:09;97302.28;;;-0.35;89.88
54122;BME280;40029;58.708;50.190;2023-12-20T03:36:41;97307.41;;;-0.33;90.14
54122;BME280;40029;58.708;50.190;2023-12-20T03:39:12;97306.50;;;-0.32;89.76
54122;BME280;40029;58.708;50.190;2023-12-20T03:41:43;97314.28;;;-0.32;90.25
54122;BME280;40029;58.708;50.190;2023-12-20T03:44:14;97315.03;;;-0.29;90.34
54122;BME280;40029;58.708;50.190;2023-12-20T03:46:46;97321.75;;;-0.23;90.36
54122;BME280;40029;58.708;50.190;2023-12-20T03:49:17;97319.09;;;-0.22;90.05
54122;BME280;40029;58.708;50.190;2023-12-20T03:51:48;97314.72;;;-0.21;89.78
54122;BME280;40029;58.708;50.190;2023-12-20T03:54:19;97323.44;;;-0.22;90.38
54122;BME280;40029;58.708;50.190;2023-12-20T03:56:51;97320.75;;;-0.21;90.07
54122;BME280;40029;58.708;50.190;2023-12-20T03:59:22;97331.94;;;-0.18;90.16
54122;BME280;40029;58.708;50.190;2023-12-20T04:01:53;97334.72;;;-0.23;90.34
54122;BME280;40029;58.708;50.190;2023-12-20T04:04:24;97339.72;;;-0.18;90.21
54122;BME280;40029;58.708;50.190;2023-12-20T04:06:55;97345.84;;;-0.20;89.90
54122;BME280;40029;58.708;50.190;2023-12-20T04:09:45;97345.78;;;-0.18;90.09
54122;BME280;40029;58.708;50.190;2023-12-20T04:12:16;97344.75;;;-0.14;89.70
54122;BME280;40029;58.708;50.190;2023-12-20T04:14:47;97361.38;;;-0.18;89.63
54122;BME280;40029;58.708;50.190;2023-12-20T04:17:19;97364.56;;;-0.11;90.05
54122;BME280;40029;58.708;50.190;2023-12-20T04:19:51;97365.34;;;-0.09;89.34
54122;BME280;40029;58.708;50.190;2023-12-20T04:22:22;97367.84;;;-0.06;89.97
54122;BME280;40029;58.708;50.190;2023-12-20T04:24:54;97365.19;;;-0.05;89.83
54122;BME280;40029;58.708;50.190;2023-12-20T04:27:25;97368.69;;;-0.06;89.97
54122;BME280;40029;58.708;50.190;2023-12-20T04:30:15;97374.75;;;-0.05;89.73
54122;BME280;40029;58.708;50.190;2023-12-20T04:32:46;97384.41;;;-0.09;89.57
54122;BME280;40029;58.708;50.190;2023-12-20T04:35:17;97384.34;;;-0.07;89.67
54122;BME280;40029;58.708;50.190;2023-12-20T04:37:48;97391.06;;;-0.02;89.76
54122;BME280;40029;58.708;50.190;2023-12-20T04:40:20;97388.53;;;-0.03;89.57
54122;BME280;40029;58.708;50.190;2023-12-20T04:42:51;97393.66;;;-0.02;89.29
54122;BME280;40029;58.708;50.190;2023-12-20T04:45:22;97395.25;;;0.03;89.66
54122;BME280;40029;58.708;50.190;2023-12-20T04:47:55;97409.91;;;0.04;89.52
54122;BME280;40029;58.708;50.190;2023-12-20T04:50:27;97408.22;;;0.03;89.88
54122;BME280;40029;58.708;50.190;2023-12-20T04:52:58;97410.88;;;0.01;89.79
54122;BME280;40029;58.708;50.190;2023-12-20T04:55:47;97421.19;;;0.04;89.51
54122;BME280;40029;58.708;50.190;2023-12-20T04:58:19;97426.31;;;0.06;89.32
54122;BME280;40029;58.708;50.190;2023-12-20T05:00:50;97428.09;;;0.04;89.13
54122;BME280;40029;58.708;50.190;2023-12-20T05:03:21;97424.59;;;0.05;89.21
54122;BME280;40029;58.708;50.190;2023-12-20T05:05:52;97423.78;;;0.04;89.32
54122;BME280;40029;58.708;50.190;2023-12-20T05:08:24;97434.91;;;0.08;88.65
54122;BME280;40029;58.708;50.190;2023-12-20T05:10:56;97439.19;;;0.09;88.63
54122;BME280;40029;58.708;50.190;2023-12-20T05:13:27;97436.53;;;0.10;88.70
54122;BME280;40029;58.708;50.190;2023-12-20T05:15:58;97438.38;;;0.07;88.01
54122;BME280;40029;58.708;50.190;2023-12-20T05:18:29;97439.22;;;0.07;88.03
54122;BME280;40029;58.708;50.190;2023-12-20T05:21:00;97446.09;;;0.10;87.73
54122;BME280;40029;58.708;50.190;2023-12-20T05:23:32;97454.75;;;0.09;88.27
54122;BME280;40029;58.708;50.190;2023-12-20T05:26:03;97449.34;;;0.15;88.51
54122;BME280;40029;58.708;50.190;2023-12-20T05:28:34;97471.94;;;0.13;87.87
54122;BME280;40029;58.708;50.190;2023-12-20T05:31:05;97469.34;;;0.13;87.79
54122;BME280;40029;58.708;50.190;2023-12-20T05:33:37;97471.09;;;0.12;87.12
54122;BME280;40029;58.708;50.190;2023-12-20T05:36:08;97471.94;;;0.13;87.91
54122;BME280;40029;58.708;50.190;2023-12-20T05:38:42;97476.09;;;0.18;87.88
54122;BME280;40029;58.708;50.190;2023-12-20T05:41:13;97479.56;;;0.17;87.66
54122;BME280;40029;58.708;50.190;2023-12-20T05:43:44;97474.44;;;0.16;87.98
54122;BME280;40029;58.708;50.190;2023-12-20T05:46:15;97473.41;;;0.20;88.04
54122;BME280;40029;58.708;50.190;2023-12-20T05:48:46;97482.97;;;0.19;87.54
54122;BME280;40029;58.708;50.190;2023-12-20T05:51:18;97478.59;;;0.20;87.69
54122;BME280;40029;58.708;50.190;2023-12-20T05:53:49;97487.19;;;0.22;87.50
54122;BME280;40029;58.708;50.190;2023-12-20T05:56:20;97489.13;;;0.17;87.36
54122;BME280;40029;58.708;50.190;2023-12-20T05:58:53;97489.88;;;0.21;87.31
54122;BME280;40029;58.708;50.190;2023-12-20T06:01:24;97496.78;;;0.20;88.16
54122;BME280;40029;58.708;50.190;2023-12-20T06:03:55;97500.25;;;0.21;87.85
54122;BME280;40029;58.708;50.190;2023-12-20T06:06:26;97504.59;;;0.20;87.84
54122;BME280;40029;58.708;50.190;2023-12-20T06:08:58;97503.59;;;0.24;87.19
54122;BME280;40029;58.708;50.190;2023-12-20T06:11:29;97504.72;;;0.17;87.00
54122;BME280;40029;58.708;50.190;2023-12-20T06:14:00;97502.97;;;0.17;87.09
54122;BME280;40029;58.708;50.190;2023-12-20T06:16:31;97508.22;;;0.16;86.30
54122;BME280;40029;58.708;50.190;2023-12-20T06:19:03;97506.44;;;0.16;86.31
54122;BME280;40029;58.708;50.190;2023-12-20T06:21:34;97513.50;;;0.13;86.13
54122;BME280;40029;58.708;50.190;2023-12-20T06:24:05;97510.66;;;0.21;86.38
54122;BME280;40029;58.708;50.190;2023-12-20T06:26:36;97505.97;;;0.30;87.18
54122;BME280;40029;58.708;50.190;2023-12-20T06:29:26;97513.06;;;0.25;86.63
54122;BME280;40029;58.708;50.190;2023-12-20T06:31:57;97520.09;;;0.23;85.92
54122;BME280;40029;58.708;50.190;2023-12-20T06:34:46;97519.25;;;0.23;85.88
54122;BME280;40029;58.708;50.190;2023-12-20T06:37:18;97527.09;;;0.21;85.48
54122;BME280;40029;58.708;50.190;2023-12-20T06:39:49;97532.34;;;0.19;84.99
54122;BME280;40029;58.708;50.190;2023-12-20T06:42:20;97538.72;;;0.34;86.25
54122;BME280;40029;58.708;50.190;2023-12-20T06:44:52;97542.25;;;0.33;86.04
54122;BME280;40029;58.708;50.190;2023-12-20T06:47:23;97553.44;;;0.35;86.24
54122;BME280;40029;58.708;50.190;2023-12-20T06:49:54;97550.25;;;0.27;85.45
54122;BME280;40029;58.708;50.190;2023-12-20T06:52:25;97561.09;;;0.38;85.90
54122;BME280;40029;58.708;50.190;2023-12-20T06:54:56;97568.13;;;0.36;85.69
54122;BME280;40029;58.708;50.190;2023-12-20T06:57:27;97567.31;;;0.34;84.81
54122;BME280;40029;58.708;50.190;2023-12-20T07:00:17;97578.22;;;0.44;85.32
54122;BME280;40029;58.708;50.190;2023-12-20T07:02:50;97569.81;;;0.37;85.42
54122;BME280;40029;58.708;50.190;2023-12-20T07:05:21;97585.28;;;0.41;85.95
54122;BME280;40029;58.708;50.190;2023-12-20T07:07:53;97584.41;;;0.42;85.77
54122;BME280;40029;58.708;50.190;2023-12-20T07:10:24;97588.28;;;0.53;86.43
54122;BME280;40029;58.708;50.190;2023-12-20T07:12:56;97592.75;;;0.50;85.55
54122;BME280;40029;58.708;50.190;2023-12-20T07:15:27;97593.59;;;0.52;85.35
54122;BME280;40029;58.708;50.190;2023-12-20T07:18:00;97588.59;;;0.46;85.59
54122;BME280;40029;58.708;50.190;2023-12-20T07:20:32;97587.47;;;0.53;85.28
54122;BME280;40029;58.708;50.190;2023-12-20T07:23:03;97586.72;;;0.49;85.50
54122;BME280;40029;58.708;50.190;2023-12-20T07:25:34;97583.28;;;0.49;83.97
54122;BME280;40029;58.708;50.190;2023-12-20T07:28:05;97584.84;;;0.53;84.63
54122;BME280;40029;58.708;50.190;2023-12-20T07:30:37;97583.19;;;0.52;84.24
54122;BME280;40029;58.708;50.190;2023-12-20T07:33:08;97588.38;;;0.52;84.05
54122;BME280;40029;58.708;50.190;2023-12-20T07:35:40;97594.66;;;0.46;83.36
54122;BME280;40029;58.708;50.190;2023-12-20T07:38:11;97598.69;;;0.53;84.50
54122;BME280;40029;58.708;50.190;2023-12-20T07:40:43;97585.09;;;0.47;83.34
54122;BME280;40029;58.708;50.190;2023-12-20T07:43:14;97585.19;;;0.44;82.86
54122;BME280;40029;58.708;50.190;2023-12-20T07:45:45;97588.81;;;0.40;82.82
54122;BME280;40029;58.708;50.190;2023-12-20T07:48:16;97588.44;;;0.50;83.82
54122;BME280;40029;58.708;50.190;2023-12-20T07:50:47;97598.38;;;0.39;82.73
54122;BME280;40029;58.708;50.190;2023-12-20T07:53:19;97596.38;;;0.46;82.95
54122;BME280;40029;58.708;50.190;2023-12-20T07:55:50;97588.72;;;0.43;82.22
54122;BME280;40029;58.708;50.190;2023-12-20T07:58:23;97590.97;;;0.52;83.28
54122;BME280;40029;58.708;50.190;2023-12-20T08:00:54;97591.53;;;0.60;83.17
54122;BME280;40029;58.708;50.190;2023-12-20T08:03:25;97594.41;;;0.52;81.97
54122;BME280;40029;58.708;50.190;2023-12-20T08:05:56;97596.84;;;0.57;82.08
54122;BME280;40029;58.708;50.190;2023-12-20T08:08:30;97593.16;;;0.63;82.55
54122;BME280;40029;58.708;50.190;2023-12-20T08:11:02;97597.53;;;0.62;82.48
54122;BME280;40029;58.708;50.190;2023-12-20T08:13:51;97601.09;;;0.60;80.77
54122;BME280;40029;58.708;50.190;2023-12-20T08:16:40;97610.53;;;0.62;81.72
54122;BME280;40029;58.708;50.190;2023-12-20T08:19:12;97611.44;;;0.61;80.71
54122;BME280;40029;58.708;50.190;2023-12-20T08:21:43;97599.09;;;0.66;81.91
54122;BME280;40029;58.708;50.190;2023-12-20T08:24:14;97604.78;;;0.77;82.70
54122;BME280;40029;58.708;50.190;2023-12-20T08:26:46;97611.91;;;0.72;80.96
54122;BME280;40029;58.708;50.190;2023-12-20T08:29:17;97618.69;;;0.76;82.39
54122;BME280;40029;58.708;50.190;2023-12-20T08:31:52;97622.31;;;0.72;80.15
54122;BME280;40029;58.708;50.190;2023-12-20T08:34:25;97625.78;;;0.71;79.69
54122;BME280;40029;58.708;50.190;2023-12-20T08:36:56;97633.44;;;0.76;81.79
54122;BME280;40029;58.708;50.190;2023-12-20T08:39:27;97629.00;;;0.54;80.27
54122;BME280;40029;58.708;50.190;2023-12-20T08:41:58;97639.47;;;0.53;81.48
54122;BME280;40029;58.708;50.190;2023-12-20T08:44:29;97645.00;;;0.44;81.76
54122;BME280;40029;58.708;50.190;2023-12-20T08:47:02;97638.63;;;0.52;82.31
54122;BME280;40029;58.708;50.190;2023-12-20T08:49:33;97636.88;;;0.53;81.59
54122;BME280;40029;58.708;50.190;2023-12-20T08:52:05;97640.50;;;0.49;82.26
54122;BME280;40029;58.708;50.190;2023-12-20T08:54:36;97649.34;;;0.43;82.39
54122;BME280;40029;58.708;50.190;2023-12-20T08:57:07;97650.88;;;0.49;81.84
54122;BME280;40029;58.708;50.190;2023-12-20T08:59:38;97645.47;;;0.55;82.35
54122;BME280;40029;58.708;50.190;2023-12-20T09:02:09;97643.78;;;0.54;81.24
54122;BME280;40029;58.708;50.190;2023-12-20T09:04:41;97653.63;;;0.44;81.44
54122;BME280;40029;58.708;50.190;2023-12-20T09:07:25;97660.44;;;0.48;82.60
54122;BME280;40029;58.708;50.190;2023-12-20T09:09:57;97657.94;;;0.45;82.73
54122;BME280;40029;58.708;50.190;2023-12-20T09:12:51;97648.38;;;0.46;82.53
54122;BME280;40029;58.708;50.190;2023-12-20T09:15:25;97661.38;;;0.46;82.23
54122;BME280;40029;58.708;50.190;2023-12-20T09:17:56;97665.53;;;0.51;82.58
54122;BME280;40029;58.708;50.190;2023-12-20T09:20:28;97667.28;;;0.51;82.83
54122;BME280;40029;58.708;50.190;2023-12-20T09:22:59;97678.56;;;0.50;83.31
54122;BME280;40029;58.708;50.190;2023-12-20T09:25:30;97662.41;;;0.42;82.79
54122;BME280;40029;58.708;50.190;2023-12-20T09:28:03;97677.53;;;0.55;83.51
54122;BME280;40029;58.708;50.190;2023-12-20T09:30:34;97664.69;;;0.51;83.53
54122;BME280;40029;58.708;50.190;2023-12-20T09:33:08;97671.41;;;0.56;81.96
54122;BME280;40029;58.708;50.190;2023-12-20T09:35:58;97666.41;;;0.52;80.16
54122;BME280;40029;58.708;50.190;2023-12-20T09:38:29;97670.31;;;0.64;82.35
54122;BME280;40029;58.708;50.190;2023-12-20T09:41:00;97666.16;;;0.58;82.10
54122;BME280;40029;58.708;50.190;2023-12-20T09:43:37;97668.03;;;0.54;80.72
54122;BME280;40029;58.708;50.190;2023-12-20T09:46:11;97675.09;;;0.51;81.34
54122;BME280;40029;58.708;50.190;2023-12-20T09:48:44;97668.16;;;0.50;82.20
54122;BME280;40029;58.708;50.190;2023-12-20T09:51:16;97665.75;;;0.45;81.77
54122;BME280;40029;58.708;50.190;2023-12-20T09:53:47;97669.16;;;0.47;82.82
54122;BME280;40029;58.708;50.190;2023-12-20T09:56:19;97677.03;;;0.44;82.48
54122;BME280;40029;58.708;50.190;2023-12-20T09:58:51;97674.63;;;0.40;81.50
54122;BME280;40029;58.708;50.190;2023-12-20T10:01:23;97674.63;;;0.40;80.83
54122;BME280;40029;58.708;50.190;2023-12-20T10:03:55;97668.63;;;0.37;81.76
54122;BME280;40029;58.708;50.190;2023-12-20T10:06:27;97673.34;;;0.26;81.65
54122;BME280;40029;58.708;50.190;2023-12-20T10:09:01;97682.63;;;0.33;83.58
54122;BME280;40029;58.708;50.190;2023-12-20T10:11:35;97675.72;;;0.32;83.85
54122;BME280;40029;58.708;50.190;2023-12-20T10:14:08;97678.50;;;0.28;84.11
54122;BME280;40029;58.708;50.190;2023-12-20T10:16:41;97675.19;;;0.23;83.95
54122;BME280;40029;58.708;50.190;2023-12-20T10:19:16;97676.69;;;0.30;84.12
54122;BME280;40029;58.708;50.190;2023-12-20T10:21:48;97680.19;;;0.29;83.93
54122;BME280;40029;58.708;50.190;2023-12-20T10:24:20;97681.03;;;0.29;83.34
54122;BME280;40029;58.708;50.190;2023-12-20T10:27:01;97683.00;;;0.23;83.09
54122;BME280;40029;58.708;50.190;2023-12-20T10:29:53;97675.94;;;0.26;83.47
54122;BME280;40029;58.708;50.190;2023-12-20T10:32:26;97681.41;;;0.18;83.71
54122;BME280;40029;58.708;50.190;2023-12-20T10:35:16;97675.25;;;0.21;84.28
54122;BME280;40029;58.708;50.190;2023-12-20T10:38:06;97681.34;;;0.20;84.01
54122;BME280;40029;58.708;50.190;2023-12-20T10:40:37;97672.13;;;0.11;83.73
54122;BME280;40029;58.708;50.190;2023-12-20T10:43:08;97671.41;;;0.06;84.49
54122;BME280;40029;58.708;50.190;2023-12-20T10:45:42;97671.06;;;0.17;84.81
54122;BME280;40029;58.708;50.190;2023-12-20T10:48:15;97663.31;;;0.15;84.11
54122;BME280;40029;58.708;50.190;2023-12-20T10:50:47;97673.66;;;0.17;84.63
54122;BME280;40029;58.708;50.190;2023-12-20T10:53:20;97670.06;;;0.21;83.97
54122;BME280;40029;58.708;50.190;2023-12-20T10:55:55;97672.00;;;0.14;83.47
54122;BME280;40029;58.708;50.190;2023-12-20T10:58:29;97668.56;;;0.14;83.91
54122;BME280;40029;58.708;50.190;2023-12-20T11:01:04;97669.34;;;0.16;83.58
54122;BME280;40029;58.708;50.190;2023-12-20T11:03:36;97668.41;;;0.18;83.67
54122;BME280;40029;58.708;50.190;2023-12-20T11:06:43;97669.72;;;0.05;82.37
54122;BME280;40029;58.708;50.190;2023-12-20T11:12:32;97673.44;;;0.23;81.92
54122;BME280;40029;58.708;50.190;2023-12-20T11:15:06;97680.72;;;0.13;80.29
54122;BME280;40029;58.708;50.190;2023-12-20T11:17:39;97671.94;;;0.16;81.40
54122;BME280;40029;58.708;50.190;2023-12-20T11:20:11;97665.00;;;0.16;82.18
54122;BME280;40029;58.708;50.190;2023-12-20T11:22:53;97666.84;;;0.13;81.02
54122;BME280;40029;58.708;50.190;2023-12-20T11:25:52;97672.34;;;0.04;81.10
54122;BME280;40029;58.708;50.190;2023-12-20T11:28:25;97674.03;;;0.06;81.30
54122;BME280;40029;58.708;50.190;2023-12-20T11:30:57;97678.69;;;-0.04;82.03
54122;BME280;40029;58.708;50.190;2023-12-20T11:33:35;97674.09;;;0.03;82.78
54122;BME280;40029;58.708;50.190;2023-12-20T11:36:13;97673.03;;;-0.16;83.46
54122;BME280;40029;58.708;50.190;2023-12-20T11:38:58;97681.94;;;-0.24;83.62
54122;BME280;40029;58.708;50.190;2023-12-20T11:41:49;97689.00;;;-0.29;84.19
54122;BME280;40029;58.708;50.190;2023-12-20T11:44:39;97693.38;;;-0.29;84.24
54122;BME280;40029;58.708;50.190;2023-12-20T11:47:13;97688.03;;;-0.26;84.20
54122;BME280;40029;58.708;50.190;2023-12-20T11:49:47;97686.44;;;-0.30;85.14
54122;BME280;40029;58.708;50.190;2023-12-20T11:52:19;97682.00;;;-0.27;85.80
54122;BME280;40029;58.708;50.190;2023-12-20T11:54:50;97688.25;;;-0.32;85.09
54122;BME280;40029;58.708;50.190;2023-12-20T11:57:22;97684.66;;;-0.28;85.19
54122;BME280;40029;58.708;50.190;2023-12-20T11:59:53;97679.56;;;-0.31;84.88
54122;BME280;40029;58.708;50.190;2023-12-20T12:02:24;97690.00;;;-0.33;84.95
54122;BME280;40029;58.708;50.190;2023-12-20T12:04:56;97694.13;;;-0.26;85.61
54122;BME280;40029;58.708;50.190;2023-12-20T12:07:27;97698.47;;;-0.28;84.34
54122;BME280;40029;58.708;50.190;2023-12-20T12:09:58;97707.03;;;-0.24;84.61
54122;BME280;40029;58.708;50.190;2023-12-20T12:12:29;97708.66;;;-0.20;85.21
54122;BME280;40029;58.708;50.190;2023-12-20T12:15:01;97710.38;;;-0.21;85.03
54122;BME280;40029;58.708;50.190;2023-12-20T12:17:36;97713.84;;;-0.20;84.36
54122;BME280;40029;58.708;50.190;2023-12-20T12:20:08;97715.66;;;-0.22;84.66
54122;BME280;40029;58.708;50.190;2023-12-20T12:22:40;97714.03;;;-0.26;85.30
54122;BME280;40029;58.708;50.190;2023-12-20T12:25:13;97713.94;;;-0.23;86.61
54122;BME280;40029;58.708;50.190;2023-12-20T12:28:03;97704.38;;;-0.23;86.49
54122;BME280;40029;58.708;50.190;2023-12-20T12:30:35;97713.25;;;-0.30;86.44
54122;BME280;40029;58.708;50.190;2023-12-20T12:33:06;97713.25;;;-0.30;86.19
54122;BME280;40029;58.708;50.190;2023-12-20T12:35:37;97720.88;;;-0.24;85.75
54122;BME280;40029;58.708;50.190;2023-12-20T12:38:09;97720.84;;;-0.22;84.98
54122;BME280;40029;58.708;50.190;2023-12-20T12:40:40;97726.09;;;-0.24;84.22
54122;BME280;40029;58.708;50.190;2023-12-20T12:43:32;97725.84;;;-0.16;84.73
54122;BME280;40029;58.708;50.190;2023-12-20T12:46:04;97729.13;;;-0.11;85.02
54122;BME280;40029;58.708;50.190;2023-12-20T12:48:35;97726.59;;;-0.12;85.68
54122;BME280;40029;58.708;50.190;2023-12-20T12:51:06;97723.94;;;-0.11;85.77
54122;BME280;40029;58.708;50.190;2023-12-20T12:53:43;97720.44;;;-0.10;86.01
54122;BME280;40029;58.708;50.190;2023-12-20T12:56:15;97718.53;;;-0.05;85.95
54122;BME280;40029;58.708;50.190;2023-12-20T12:58:46;97726.69;;;-0.15;86.15
54122;BME280;40029;58.708;50.190;2023-12-20T13:01:17;97725.03;;;-0.18;86.80
54122;BME280;40029;58.708;50.190;2023-12-20T13:03:49;97729.47;;;-0.22;86.67
54122;BME280;40029;58.708;50.190;2023-12-20T13:06:20;97723.31;;;-0.19;87.14
54122;BME280;40029;58.708;50.190;2023-12-20T13:08:51;97722.44;;;-0.18;86.31
54122;BME280;40029;58.708;50.190;2023-12-20T13:11:22;97725.06;;;-0.20;86.70
54122;BME280;40029;58.708;50.190;2023-12-20T13:13:54;97727.91;;;-0.27;86.55
54122;BME280;40029;58.708;50.190;2023-12-20T13:16:25;97727.50;;;-0.15;86.35
54122;BME280;40029;58.708;50.190;2023-12-20T13:18:56;97714.72;;;-0.21;86.11
54122;BME280;40029;58.708;50.190;2023-12-20T13:21:46;97708.53;;;-0.17;86.28
54122;BME280;40029;58.708;50.190;2023-12-20T13:24:17;97698.44;;;-0.26;85.65
54122;BME280;40029;58.708;50.190;2023-12-20T13:26:49;97699.94;;;-0.19;85.82
54122;BME280;40029;58.708;50.190;2023-12-20T13:29:21;97695.50;;;-0.15;85.32
54122;BME280;40029;58.708;50.190;2023-12-20T13:31:53;97701.53;;;-0.15;85.23